sensor_id;sensor_type;location;lat;lon;timestamp;temperature;humidity
13529;DHT22;4419;50.882;4.718;2022-08-01T00:01:35;21.90;99.90
13529;DHT22;4419;50.882;4.718;2022-08-01T00:04:00;21.90;99.90
13529;DHT22;4419;50.882;4.718;2022-08-01T00:06:26;21.90;99.90
13529;DHT22;4419;50.882;4.718;2022-08-01T00:08:51;22.00;99.90
13529;DHT22;4419;50.882;4.718;2022-08-01T00:11:17;22.00;99.90
13529;DHT22;4419;50.882;4.718;2022-08-01T00:13:43;21.90;99.90
13529;DHT22;4419;50.882;4.718;2022-08-01T00:16:08;21.90;99.90
13529;DHT22;4419;50.882;4.718;2022-08-01T00:18:34;21.80;99.90
13529;DHT22;4419;50.882;4.718;2022-08-01T00:21:01;21.70;99.90
13529;DHT22;4419;50.882;4.718;2022-08-01T00:23:27;21.80;99.90
13529;DHT22;4419;50.882;4.718;2022-08-01T00:25:52;21.80;99.90
13529;DHT22;4419;50.882;4.718;2022-08-01T00:28:18;21.80;99.90
13529;DHT22;4419;50.882;4.718;2022-08-01T00:30:43;21.80;99.90
13529;DHT22;4419;50.882;4.718;2022-08-01T00:33:09;21.80;99.90
13529;DHT22;4419;50.882;4.718;2022-08-01T00:35:35;21.70;99.90
13529;DHT22;4419;50.882;4.718;2022-08-01T00:38:00;21.60;99.90
13529;DHT22;4419;50.882;4.718;2022-08-01T00:40:26;21.70;99.90
13529;DHT22;4419;50.882;4.718;2022-08-01T00:42:51;21.70;99.90
13529;DHT22;4419;50.882;4.718;2022-08-01T00:45:17;21.70;99.90
13529;DHT22;4419;50.882;4.718;2022-08-01T00:47:42;21.70;99.90
13529;DHT22;4419;50.882;4.718;2022-08-01T00:50:08;21.60;99.90
13529;DHT22;4419;50.882;4.718;2022-08-01T00:52:35;21.70;99.90
13529;DHT22;4419;50.882;4.718;2022-08-01T00:55:01;21.70;99.90
13529;DHT22;4419;50.882;4.718;2022-08-01T00:57:26;21.80;99.90
13529;DHT22;4419;50.882;4.718;2022-08-01T00:59:53;21.70;99.90
13529;DHT22;4419;50.882;4.718;2022-08-01T01:02:18;21.70;99.90
13529;DHT22;4419;50.882;4.718;2022-08-01T01:04:44;21.60;99.90
13529;DHT22;4419;50.882;4.718;2022-08-01T01:07:21;21.50;99.90
13529;DHT22;4419;50.882;4.718;2022-08-01T01:10:03;21.60;99.90
13529;DHT22;4419;50.882;4.718;2022-08-01T01:15:04;21.40;99.90
13529;DHT22;4419;50.882;4.718;2022-08-01T01:17:32;21.30;99.90
13529;DHT22;4419;50.882;4.718;2022-08-01T01:20:01;21.30;99.90
13529;DHT22;4419;50.882;4.718;2022-08-01T01:30:17;21.20;99.90
13529;DHT22;4419;50.882;4.718;2022-08-01T01:32:44;21.20;99.90
13529;DHT22;4419;50.882;4.718;2022-08-01T01:35:14;21.20;99.90
13529;DHT22;4419;50.882;4.718;2022-08-01T01:37:40;21.20;99.90
13529;DHT22;4419;50.882;4.718;2022-08-01T01:40:07;21.20;99.90
13529;DHT22;4419;50.882;4.718;2022-08-01T01:42:34;21.20;99.90
13529;DHT22;4419;50.882;4.718;2022-08-01T01:45:01;21.30;99.90
13529;DHT22;4419;50.882;4.718;2022-08-01T01:47:27;21.20;99.90
13529;DHT22;4419;50.882;4.718;2022-08-01T01:49:54;21.20;99.90
13529;DHT22;4419;50.882;4.718;2022-08-01T01:52:21;21.20;99.90
13529;DHT22;4419;50.882;4.718;2022-08-01T01:54:50;21.30;99.90
13529;DHT22;4419;50.882;4.718;2022-08-01T01:57:16;21.30;99.90
13529;DHT22;4419;50.882;4.718;2022-08-01T01:59:42;21.40;99.90
13529;DHT22;4419;50.882;4.718;2022-08-01T02:02:09;21.40;99.90
13529;DHT22;4419;50.882;4.718;2022-08-01T02:04:36;21.40;99.90
13529;DHT22;4419;50.882;4.718;2022-08-01T02:07:03;21.30;99.90
13529;DHT22;4419;50.882;4.718;2022-08-01T02:09:29;21.40;99.90
13529;DHT22;4419;50.882;4.718;2022-08-01T02:11:56;21.30;99.90
13529;DHT22;4419;50.882;4.718;2022-08-01T02:14:23;21.30;99.90
13529;DHT22;4419;50.882;4.718;2022-08-01T02:16:50;21.30;99.90
13529;DHT22;4419;50.882;4.718;2022-08-01T02:19:19;21.20;99.90
13529;DHT22;4419;50.882;4.718;2022-08-01T02:21:49;21.20;99.90
13529;DHT22;4419;50.882;4.718;2022-08-01T02:24:19;21.30;99.90
13529;DHT22;4419;50.882;4.718;2022-08-01T02:26:47;21.30;99.90
13529;DHT22;4419;50.882;4.718;2022-08-01T02:29:14;21.30;99.90
13529;DHT22;4419;50.882;4.718;2022-08-01T02:31:42;21.40;99.90
13529;DHT22;4419;50.882;4.718;2022-08-01T02:34:11;21.40;99.90
13529;DHT22;4419;50.882;4.718;2022-08-01T02:36:38;21.40;99.90
13529;DHT22;4419;50.882;4.718;2022-08-01T02:39:08;21.40;99.90
13529;DHT22;4419;50.882;4.718;2022-08-01T02:41:35;21.30;99.90
13529;DHT22;4419;50.882;4.718;2022-08-01T02:44:04;21.40;99.90
13529;DHT22;4419;50.882;4.718;2022-08-01T02:46:35;21.30;99.90
13529;DHT22;4419;50.882;4.718;2022-08-01T02:49:02;21.40;99.90
13529;DHT22;4419;50.882;4.718;2022-08-01T02:51:28;21.40;99.90
13529;DHT22;4419;50.882;4.718;2022-08-01T02:53:55;21.30;99.90
13529;DHT22;4419;50.882;4.718;2022-08-01T02:56:22;21.40;99.90
13529;DHT22;4419;50.882;4.718;2022-08-01T02:58:48;21.40;99.90
13529;DHT22;4419;50.882;4.718;2022-08-01T03:01:15;21.40;99.90
13529;DHT22;4419;50.882;4.718;2022-08-01T03:03:41;21.40;99.90
13529;DHT22;4419;50.882;4.718;2022-08-01T03:06:07;21.40;99.90
13529;DHT22;4419;50.882;4.718;2022-08-01T03:08:33;21.40;99.90
13529;DHT22;4419;50.882;4.718;2022-08-01T03:11:00;21.50;99.90
13529;DHT22;4419;50.882;4.718;2022-08-01T03:13:26;21.40;99.90
13529;DHT22;4419;50.882;4.718;2022-08-01T03:15:53;21.40;99.90
13529;DHT22;4419;50.882;4.718;2022-08-01T03:18:19;21.40;99.90
13529;DHT22;4419;50.882;4.718;2022-08-01T03:20:46;21.30;99.90
13529;DHT22;4419;50.882;4.718;2022-08-01T03:23:12;21.30;99.90
13529;DHT22;4419;50.882;4.718;2022-08-01T03:25:38;21.20;99.90
13529;DHT22;4419;50.882;4.718;2022-08-01T03:28:05;21.20;99.90
13529;DHT22;4419;50.882;4.718;2022-08-01T03:30:31;21.30;99.90
13529;DHT22;4419;50.882;4.718;2022-08-01T03:32:58;21.20;99.90
13529;DHT22;4419;50.882;4.718;2022-08-01T03:35:26;21.20;99.90
13529;DHT22;4419;50.882;4.718;2022-08-01T03:37:54;21.30;99.90
13529;DHT22;4419;50.882;4.718;2022-08-01T03:40:22;21.20;99.90
13529;DHT22;4419;50.882;4.718;2022-08-01T03:42:50;21.20;99.90
13529;DHT22;4419;50.882;4.718;2022-08-01T03:45:27;21.20;99.90
13529;DHT22;4419;50.882;4.718;2022-08-01T03:47:59;21.10;99.90
13529;DHT22;4419;50.882;4.718;2022-08-01T03:50:25;21.10;99.90
13529;DHT22;4419;50.882;4.718;2022-08-01T03:52:52;21.00;99.90
13529;DHT22;4419;50.882;4.718;2022-08-01T03:55:18;20.90;99.90
13529;DHT22;4419;50.882;4.718;2022-08-01T03:57:45;20.90;99.90
13529;DHT22;4419;50.882;4.718;2022-08-01T04:00:11;20.80;99.90
13529;DHT22;4419;50.882;4.718;2022-08-01T04:02:37;20.80;99.90
13529;DHT22;4419;50.882;4.718;2022-08-01T04:05:03;20.70;99.90
13529;DHT22;4419;50.882;4.718;2022-08-01T04:07:32;20.70;99.90
13529;DHT22;4419;50.882;4.718;2022-08-01T04:09:58;20.70;99.90
13529;DHT22;4419;50.882;4.718;2022-08-01T04:12:24;20.60;99.90
13529;DHT22;4419;50.882;4.718;2022-08-01T04:14:49;20.60;99.90
13529;DHT22;4419;50.882;4.718;2022-08-01T04:17:15;20.60;99.90
13529;DHT22;4419;50.882;4.718;2022-08-01T04:19:41;20.60;99.90
13529;DHT22;4419;50.882;4.718;2022-08-01T04:22:08;20.50;99.90
13529;DHT22;4419;50.882;4.718;2022-08-01T04:24:34;20.50;99.90
13529;DHT22;4419;50.882;4.718;2022-08-01T04:27:01;20.50;99.90
13529;DHT22;4419;50.882;4.718;2022-08-01T04:29:28;20.50;99.90
13529;DHT22;4419;50.882;4.718;2022-08-01T04:31:55;20.40;99.90
13529;DHT22;4419;50.882;4.718;2022-08-01T04:34:22;20.40;99.90
13529;DHT22;4419;50.882;4.718;2022-08-01T04:36:50;20.50;99.90
13529;DHT22;4419;50.882;4.718;2022-08-01T04:39:16;20.50;99.90
13529;DHT22;4419;50.882;4.718;2022-08-01T04:41:43;20.40;99.90
13529;DHT22;4419;50.882;4.718;2022-08-01T04:44:09;20.40;99.90
13529;DHT22;4419;50.882;4.718;2022-08-01T04:46:35;20.40;99.90
13529;DHT22;4419;50.882;4.718;2022-08-01T04:49:02;20.30;99.90
13529;DHT22;4419;50.882;4.718;2022-08-01T04:51:30;20.40;99.90
13529;DHT22;4419;50.882;4.718;2022-08-01T04:53:55;20.40;99.90
13529;DHT22;4419;50.882;4.718;2022-08-01T04:56:23;20.40;99.90
13529;DHT22;4419;50.882;4.718;2022-08-01T04:58:48;20.50;99.90
13529;DHT22;4419;50.882;4.718;2022-08-01T05:01:34;20.50;99.90
13529;DHT22;4419;50.882;4.718;2022-08-01T05:03:59;20.50;99.90
13529;DHT22;4419;50.882;4.718;2022-08-01T05:06:25;20.40;99.90
13529;DHT22;4419;50.882;4.718;2022-08-01T05:08:51;20.40;99.90
13529;DHT22;4419;50.882;4.718;2022-08-01T05:11:16;20.40;99.90
13529;DHT22;4419;50.882;4.718;2022-08-01T05:13:42;20.40;99.90
13529;DHT22;4419;50.882;4.718;2022-08-01T05:16:07;20.40;99.90
13529;DHT22;4419;50.882;4.718;2022-08-01T05:18:33;20.40;99.90
13529;DHT22;4419;50.882;4.718;2022-08-01T05:20:59;20.40;99.90
13529;DHT22;4419;50.882;4.718;2022-08-01T05:23:25;20.40;99.90
13529;DHT22;4419;50.882;4.718;2022-08-01T05:25:50;20.40;99.90
13529;DHT22;4419;50.882;4.718;2022-08-01T05:28:16;20.40;99.90
13529;DHT22;4419;50.882;4.718;2022-08-01T05:30:41;20.50;99.90
13529;DHT22;4419;50.882;4.718;2022-08-01T05:33:07;20.50;99.90
13529;DHT22;4419;50.882;4.718;2022-08-01T05:35:32;20.60;99.90
13529;DHT22;4419;50.882;4.718;2022-08-01T05:37:58;20.60;99.90
13529;DHT22;4419;50.882;4.718;2022-08-01T05:40:23;20.70;99.90
13529;DHT22;4419;50.882;4.718;2022-08-01T05:42:49;20.70;99.90
13529;DHT22;4419;50.882;4.718;2022-08-01T05:45:15;20.70;99.90
13529;DHT22;4419;50.882;4.718;2022-08-01T05:47:40;20.60;99.90
13529;DHT22;4419;50.882;4.718;2022-08-01T05:50:06;20.50;99.90
13529;DHT22;4419;50.882;4.718;2022-08-01T05:52:31;20.60;99.90
13529;DHT22;4419;50.882;4.718;2022-08-01T05:54:57;20.70;99.90
13529;DHT22;4419;50.882;4.718;2022-08-01T05:57:23;20.80;99.90
13529;DHT22;4419;50.882;4.718;2022-08-01T05:59:48;20.80;99.90
13529;DHT22;4419;50.882;4.718;2022-08-01T06:02:14;20.80;99.90
13529;DHT22;4419;50.882;4.718;2022-08-01T06:04:39;20.80;99.90
13529;DHT22;4419;50.882;4.718;2022-08-01T06:07:05;20.80;99.90
13529;DHT22;4419;50.882;4.718;2022-08-01T06:09:31;20.80;99.90
13529;DHT22;4419;50.882;4.718;2022-08-01T06:11:56;20.80;99.90
13529;DHT22;4419;50.882;4.718;2022-08-01T06:14:22;20.80;99.90
13529;DHT22;4419;50.882;4.718;2022-08-01T06:16:48;20.90;99.90
13529;DHT22;4419;50.882;4.718;2022-08-01T06:19:16;20.80;99.90
13529;DHT22;4419;50.882;4.718;2022-08-01T06:21:41;20.90;99.90
13529;DHT22;4419;50.882;4.718;2022-08-01T06:24:07;21.00;99.90
13529;DHT22;4419;50.882;4.718;2022-08-01T06:26:33;20.80;99.90
13529;DHT22;4419;50.882;4.718;2022-08-01T06:28:58;21.00;99.90
13529;DHT22;4419;50.882;4.718;2022-08-01T06:31:24;21.00;99.90
13529;DHT22;4419;50.882;4.718;2022-08-01T06:33:49;21.10;99.90
13529;DHT22;4419;50.882;4.718;2022-08-01T06:36:15;21.10;99.90
13529;DHT22;4419;50.882;4.718;2022-08-01T06:38:41;21.20;99.90
13529;DHT22;4419;50.882;4.718;2022-08-01T06:41:07;21.10;99.90
13529;DHT22;4419;50.882;4.718;2022-08-01T06:43:32;21.10;99.90
13529;DHT22;4419;50.882;4.718;2022-08-01T06:45:58;21.10;99.90
13529;DHT22;4419;50.882;4.718;2022-08-01T06:48:23;21.20;99.90
13529;DHT22;4419;50.882;4.718;2022-08-01T06:50:49;21.20;99.90
13529;DHT22;4419;50.882;4.718;2022-08-01T06:53:33;21.20;99.90
13529;DHT22;4419;50.882;4.718;2022-08-01T06:55:59;21.30;99.90
13529;DHT22;4419;50.882;4.718;2022-08-01T06:58:24;21.30;99.90
13529;DHT22;4419;50.882;4.718;2022-08-01T07:00:50;21.30;99.90
13529;DHT22;4419;50.882;4.718;2022-08-01T07:03:16;21.30;99.90
13529;DHT22;4419;50.882;4.718;2022-08-01T07:05:41;21.40;99.90
13529;DHT22;4419;50.882;4.718;2022-08-01T07:08:07;21.40;99.90
13529;DHT22;4419;50.882;4.718;2022-08-01T07:10:32;21.50;99.90
13529;DHT22;4419;50.882;4.718;2022-08-01T07:12:58;21.50;99.90
13529;DHT22;4419;50.882;4.718;2022-08-01T07:15:24;21.50;99.90
13529;DHT22;4419;50.882;4.718;2022-08-01T07:17:51;21.30;99.90
13529;DHT22;4419;50.882;4.718;2022-08-01T07:20:17;21.30;99.90
13529;DHT22;4419;50.882;4.718;2022-08-01T07:23:03;21.30;99.90
13529;DHT22;4419;50.882;4.718;2022-08-01T07:25:28;21.40;99.90
13529;DHT22;4419;50.882;4.718;2022-08-01T07:27:54;21.50;99.90
13529;DHT22;4419;50.882;4.718;2022-08-01T07:30:19;21.50;99.90
13529;DHT22;4419;50.882;4.718;2022-08-01T07:32:45;21.40;99.90
13529;DHT22;4419;50.882;4.718;2022-08-01T07:35:10;21.50;99.90
13529;DHT22;4419;50.882;4.718;2022-08-01T07:37:36;21.50;99.90
13529;DHT22;4419;50.882;4.718;2022-08-01T07:40:02;21.60;99.90
13529;DHT22;4419;50.882;4.718;2022-08-01T07:42:29;21.50;99.90
13529;DHT22;4419;50.882;4.718;2022-08-01T07:44:55;21.70;99.90
13529;DHT22;4419;50.882;4.718;2022-08-01T07:47:24;21.80;99.90
13529;DHT22;4419;50.882;4.718;2022-08-01T07:49:50;21.80;99.90
13529;DHT22;4419;50.882;4.718;2022-08-01T07:52:16;21.80;99.90
13529;DHT22;4419;50.882;4.718;2022-08-01T07:54:42;21.90;99.90
13529;DHT22;4419;50.882;4.718;2022-08-01T07:57:07;21.90;99.90
13529;DHT22;4419;50.882;4.718;2022-08-01T07:59:33;21.90;99.90
13529;DHT22;4419;50.882;4.718;2022-08-01T08:01:59;22.00;99.90
13529;DHT22;4419;50.882;4.718;2022-08-01T08:04:25;21.80;99.90
13529;DHT22;4419;50.882;4.718;2022-08-01T08:06:50;21.90;99.90
13529;DHT22;4419;50.882;4.718;2022-08-01T08:09:17;21.90;99.90
13529;DHT22;4419;50.882;4.718;2022-08-01T08:11:43;22.00;99.90
13529;DHT22;4419;50.882;4.718;2022-08-01T08:14:09;22.00;99.90
13529;DHT22;4419;50.882;4.718;2022-08-01T08:16:59;22.00;99.90
13529;DHT22;4419;50.882;4.718;2022-08-01T08:19:24;22.10;99.90
13529;DHT22;4419;50.882;4.718;2022-08-01T08:21:50;22.20;99.90
13529;DHT22;4419;50.882;4.718;2022-08-01T08:24:15;22.20;99.90
13529;DHT22;4419;50.882;4.718;2022-08-01T08:26:50;22.20;99.90
13529;DHT22;4419;50.882;4.718;2022-08-01T08:29:16;22.20;99.90
13529;DHT22;4419;50.882;4.718;2022-08-01T08:31:41;22.30;99.90
13529;DHT22;4419;50.882;4.718;2022-08-01T08:34:07;22.40;99.90
13529;DHT22;4419;50.882;4.718;2022-08-01T08:36:32;22.40;99.90
13529;DHT22;4419;50.882;4.718;2022-08-01T08:38:58;22.30;99.90
13529;DHT22;4419;50.882;4.718;2022-08-01T08:41:33;22.40;99.90
13529;DHT22;4419;50.882;4.718;2022-08-01T08:44:06;22.50;99.90
13529;DHT22;4419;50.882;4.718;2022-08-01T08:46:32;22.70;99.90
13529;DHT22;4419;50.882;4.718;2022-08-01T08:48:58;22.70;99.90
13529;DHT22;4419;50.882;4.718;2022-08-01T08:51:26;22.80;99.90
13529;DHT22;4419;50.882;4.718;2022-08-01T08:53:52;23.00;99.90
13529;DHT22;4419;50.882;4.718;2022-08-01T08:56:19;22.90;99.90
13529;DHT22;4419;50.882;4.718;2022-08-01T08:58:45;22.90;99.90
13529;DHT22;4419;50.882;4.718;2022-08-01T09:01:12;22.90;99.90
13529;DHT22;4419;50.882;4.718;2022-08-01T09:03:38;23.00;99.90
13529;DHT22;4419;50.882;4.718;2022-08-01T09:06:04;23.00;99.90
13529;DHT22;4419;50.882;4.718;2022-08-01T09:08:29;23.10;99.90
13529;DHT22;4419;50.882;4.718;2022-08-01T09:10:55;23.30;99.90
13529;DHT22;4419;50.882;4.718;2022-08-01T09:13:21;23.30;99.90
13529;DHT22;4419;50.882;4.718;2022-08-01T09:15:47;23.30;99.90
13529;DHT22;4419;50.882;4.718;2022-08-01T09:21:11;23.40;99.90
13529;DHT22;4419;50.882;4.718;2022-08-01T09:23:45;23.40;99.90
13529;DHT22;4419;50.882;4.718;2022-08-01T09:26:12;23.40;99.90
13529;DHT22;4419;50.882;4.718;2022-08-01T09:28:39;23.30;99.90
13529;DHT22;4419;50.882;4.718;2022-08-01T09:31:08;23.40;99.90
13529;DHT22;4419;50.882;4.718;2022-08-01T09:36:15;23.30;99.90
13529;DHT22;4419;50.882;4.718;2022-08-01T09:38:41;23.20;99.90
13529;DHT22;4419;50.882;4.718;2022-08-01T09:41:06;23.40;99.90
13529;DHT22;4419;50.882;4.718;2022-08-01T09:43:52;23.50;99.90
13529;DHT22;4419;50.882;4.718;2022-08-01T09:46:18;23.60;99.90
13529;DHT22;4419;50.882;4.718;2022-08-01T09:49:04;23.80;99.90
13529;DHT22;4419;50.882;4.718;2022-08-01T09:51:30;23.80;99.90
13529;DHT22;4419;50.882;4.718;2022-08-01T09:53:56;23.80;99.90
13529;DHT22;4419;50.882;4.718;2022-08-01T09:56:22;23.90;99.90
13529;DHT22;4419;50.882;4.718;2022-08-01T10:01:23;24.00;99.90
13529;DHT22;4419;50.882;4.718;2022-08-01T10:04:04;24.00;99.90
13529;DHT22;4419;50.882;4.718;2022-08-01T10:06:30;24.00;99.90
13529;DHT22;4419;50.882;4.718;2022-08-01T10:08:56;24.10;99.90
13529;DHT22;4419;50.882;4.718;2022-08-01T10:11:21;24.00;99.90
13529;DHT22;4419;50.882;4.718;2022-08-01T10:13:47;24.10;98.80
13529;DHT22;4419;50.882;4.718;2022-08-01T10:16:13;24.00;96.00
13529;DHT22;4419;50.882;4.718;2022-08-01T10:18:40;23.90;97.30
13529;DHT22;4419;50.882;4.718;2022-08-01T10:21:06;23.90;96.10
13529;DHT22;4419;50.882;4.718;2022-08-01T10:23:36;24.30;89.00
13529;DHT22;4419;50.882;4.718;2022-08-01T10:26:02;24.70;83.50
13529;DHT22;4419;50.882;4.718;2022-08-01T10:28:29;25.20;77.20
13529;DHT22;4419;50.882;4.718;2022-08-01T10:30:56;25.40;64.90
13529;DHT22;4419;50.882;4.718;2022-08-01T10:33:22;25.70;61.00
13529;DHT22;4419;50.882;4.718;2022-08-01T10:35:48;25.80;60.30
13529;DHT22;4419;50.882;4.718;2022-08-01T10:38:14;25.40;60.00
13529;DHT22;4419;50.882;4.718;2022-08-01T10:40:40;25.30;62.80
13529;DHT22;4419;50.882;4.718;2022-08-01T10:43:06;25.10;60.60
13529;DHT22;4419;50.882;4.718;2022-08-01T10:45:34;25.00;60.20
13529;DHT22;4419;50.882;4.718;2022-08-01T10:48:12;24.90;58.20
13529;DHT22;4419;50.882;4.718;2022-08-01T10:50:41;24.90;59.60
13529;DHT22;4419;50.882;4.718;2022-08-01T10:53:20;24.80;63.60
13529;DHT22;4419;50.882;4.718;2022-08-01T10:58:22;25.30;65.40
13529;DHT22;4419;50.882;4.718;2022-08-01T11:00:47;25.40;60.80
13529;DHT22;4419;50.882;4.718;2022-08-01T11:03:13;25.60;59.70
13529;DHT22;4419;50.882;4.718;2022-08-01T11:05:39;25.70;55.80
13529;DHT22;4419;50.882;4.718;2022-08-01T11:08:10;25.80;56.40
13529;DHT22;4419;50.882;4.718;2022-08-01T11:10:39;25.90;55.20
13529;DHT22;4419;50.882;4.718;2022-08-01T11:13:06;25.80;55.30
13529;DHT22;4419;50.882;4.718;2022-08-01T11:15:40;26.00;53.10
13529;DHT22;4419;50.882;4.718;2022-08-01T11:20:57;25.80;50.50
13529;DHT22;4419;50.882;4.718;2022-08-01T11:23:24;25.80;49.00
13529;DHT22;4419;50.882;4.718;2022-08-01T11:30:49;25.70;47.60
13529;DHT22;4419;50.882;4.718;2022-08-01T11:33:16;25.80;47.80
13529;DHT22;4419;50.882;4.718;2022-08-01T11:36:27;26.00;49.40
13529;DHT22;4419;50.882;4.718;2022-08-01T11:38:27;26.10;48.80
13529;DHT22;4419;50.882;4.718;2022-08-01T11:52:07;26.50;45.20
13529;DHT22;4419;50.882;4.718;2022-08-01T11:54:37;26.70;45.10
13529;DHT22;4419;50.882;4.718;2022-08-01T11:57:08;26.80;43.60
13529;DHT22;4419;50.882;4.718;2022-08-01T12:02:19;26.80;42.50
13529;DHT22;4419;50.882;4.718;2022-08-01T12:04:46;27.10;43.00
13529;DHT22;4419;50.882;4.718;2022-08-01T12:07:15;27.30;42.10
13529;DHT22;4419;50.882;4.718;2022-08-01T12:09:41;27.30;40.60
13529;DHT22;4419;50.882;4.718;2022-08-01T12:12:06;27.30;41.80
13529;DHT22;4419;50.882;4.718;2022-08-01T12:14:32;27.30;40.00
13529;DHT22;4419;50.882;4.718;2022-08-01T12:16:58;27.30;39.70
13529;DHT22;4419;50.882;4.718;2022-08-01T12:19:24;27.40;39.70
13529;DHT22;4419;50.882;4.718;2022-08-01T12:24:30;27.60;38.80
13529;DHT22;4419;50.882;4.718;2022-08-01T12:26:56;27.50;38.20
13529;DHT22;4419;50.882;4.718;2022-08-01T12:29:38;27.40;38.60
13529;DHT22;4419;50.882;4.718;2022-08-01T12:32:04;27.40;38.30
13529;DHT22;4419;50.882;4.718;2022-08-01T12:34:45;27.20;38.20
13529;DHT22;4419;50.882;4.718;2022-08-01T12:37:11;27.10;36.60
13529;DHT22;4419;50.882;4.718;2022-08-01T12:39:37;27.10;36.50
13529;DHT22;4419;50.882;4.718;2022-08-01T12:42:07;27.10;35.20
13529;DHT22;4419;50.882;4.718;2022-08-01T12:44:33;27.00;35.10
13529;DHT22;4419;50.882;4.718;2022-08-01T12:46:59;27.20;35.90
13529;DHT22;4419;50.882;4.718;2022-08-01T12:49:25;27.30;35.90
13529;DHT22;4419;50.882;4.718;2022-08-01T12:51:52;27.40;36.50
13529;DHT22;4419;50.882;4.718;2022-08-01T12:54:18;27.30;37.00
13529;DHT22;4419;50.882;4.718;2022-08-01T12:56:44;27.30;37.80
13529;DHT22;4419;50.882;4.718;2022-08-01T12:59:23;27.20;38.40
13529;DHT22;4419;50.882;4.718;2022-08-01T13:01:51;27.30;38.10
13529;DHT22;4419;50.882;4.718;2022-08-01T13:04:16;27.50;36.60
13529;DHT22;4419;50.882;4.718;2022-08-01T13:06:42;27.60;33.00
13529;DHT22;4419;50.882;4.718;2022-08-01T13:09:08;27.80;33.50
13529;DHT22;4419;50.882;4.718;2022-08-01T13:11:35;28.10;34.30
13529;DHT22;4419;50.882;4.718;2022-08-01T13:14:01;28.30;33.00
13529;DHT22;4419;50.882;4.718;2022-08-01T13:16:27;28.10;32.40
13529;DHT22;4419;50.882;4.718;2022-08-01T13:18:53;28.00;33.50
13529;DHT22;4419;50.882;4.718;2022-08-01T13:29:07;28.60;30.90
13529;DHT22;4419;50.882;4.718;2022-08-01T13:31:53;28.60;30.10
13529;DHT22;4419;50.882;4.718;2022-08-01T13:34:18;28.80;30.00
13529;DHT22;4419;50.882;4.718;2022-08-01T13:36:54;29.00;30.10
13529;DHT22;4419;50.882;4.718;2022-08-01T13:39:19;28.80;28.20
13529;DHT22;4419;50.882;4.718;2022-08-01T13:42:04;29.00;28.40
13529;DHT22;4419;50.882;4.718;2022-08-01T13:44:30;29.20;28.10
13529;DHT22;4419;50.882;4.718;2022-08-01T13:46:55;29.20;27.60
13529;DHT22;4419;50.882;4.718;2022-08-01T13:49:21;29.40;27.50
13529;DHT22;4419;50.882;4.718;2022-08-01T13:51:47;29.40;27.50
13529;DHT22;4419;50.882;4.718;2022-08-01T13:54:15;29.60;27.50
13529;DHT22;4419;50.882;4.718;2022-08-01T13:56:42;29.90;27.90
13529;DHT22;4419;50.882;4.718;2022-08-01T13:59:08;30.20;28.10
13529;DHT22;4419;50.882;4.718;2022-08-01T14:01:37;30.10;28.80
13529;DHT22;4419;50.882;4.718;2022-08-01T14:04:23;30.20;28.70
13529;DHT22;4419;50.882;4.718;2022-08-01T14:06:49;30.00;27.80
13529;DHT22;4419;50.882;4.718;2022-08-01T14:09:14;29.70;26.60
13529;DHT22;4419;50.882;4.718;2022-08-01T14:11:42;29.40;26.50
13529;DHT22;4419;50.882;4.718;2022-08-01T14:14:48;29.00;27.10
13529;DHT22;4419;50.882;4.718;2022-08-01T14:17:13;28.80;27.90
13529;DHT22;4419;50.882;4.718;2022-08-01T14:19:39;28.60;27.90
13529;DHT22;4419;50.882;4.718;2022-08-01T14:22:05;28.30;28.20
13529;DHT22;4419;50.882;4.718;2022-08-01T14:24:30;28.10;29.20
13529;DHT22;4419;50.882;4.718;2022-08-01T14:26:56;28.20;29.20
13529;DHT22;4419;50.882;4.718;2022-08-01T14:29:21;28.30;28.30
13529;DHT22;4419;50.882;4.718;2022-08-01T14:31:47;28.30;29.10
13529;DHT22;4419;50.882;4.718;2022-08-01T14:34:12;28.40;28.60
13529;DHT22;4419;50.882;4.718;2022-08-01T14:36:38;28.70;27.70
13529;DHT22;4419;50.882;4.718;2022-08-01T14:39:04;28.80;27.30
13529;DHT22;4419;50.882;4.718;2022-08-01T14:41:30;29.00;27.10
13529;DHT22;4419;50.882;4.718;2022-08-01T14:43:55;29.20;27.40
13529;DHT22;4419;50.882;4.718;2022-08-01T14:46:21;29.20;26.60
13529;DHT22;4419;50.882;4.718;2022-08-01T14:48:46;29.30;26.40
13529;DHT22;4419;50.882;4.718;2022-08-01T14:51:12;29.30;26.40
13529;DHT22;4419;50.882;4.718;2022-08-01T14:53:38;29.40;26.50
13529;DHT22;4419;50.882;4.718;2022-08-01T14:56:04;29.40;27.40
13529;DHT22;4419;50.882;4.718;2022-08-01T14:58:30;29.60;26.30
13529;DHT22;4419;50.882;4.718;2022-08-01T15:00:56;29.50;26.40
13529;DHT22;4419;50.882;4.718;2022-08-01T15:03:22;29.20;26.50
13529;DHT22;4419;50.882;4.718;2022-08-01T15:05:48;29.40;27.00
13529;DHT22;4419;50.882;4.718;2022-08-01T15:08:13;29.50;27.10
13529;DHT22;4419;50.882;4.718;2022-08-01T15:10:39;29.20;26.60
13529;DHT22;4419;50.882;4.718;2022-08-01T15:13:04;28.90;27.10
13529;DHT22;4419;50.882;4.718;2022-08-01T15:15:30;29.00;26.60
13529;DHT22;4419;50.882;4.718;2022-08-01T15:17:56;29.00;26.00
13529;DHT22;4419;50.882;4.718;2022-08-01T15:20:22;29.30;27.20
13529;DHT22;4419;50.882;4.718;2022-08-01T15:22:47;29.20;26.30
13529;DHT22;4419;50.882;4.718;2022-08-01T15:25:13;29.30;26.40
13529;DHT22;4419;50.882;4.718;2022-08-01T15:27:39;29.40;26.00
13529;DHT22;4419;50.882;4.718;2022-08-01T15:30:05;29.40;25.60
13529;DHT22;4419;50.882;4.718;2022-08-01T15:32:30;29.60;25.60
13529;DHT22;4419;50.882;4.718;2022-08-01T15:34:56;29.40;25.30
13529;DHT22;4419;50.882;4.718;2022-08-01T15:37:22;29.40;25.60
13529;DHT22;4419;50.882;4.718;2022-08-01T15:39:47;29.40;26.10
13529;DHT22;4419;50.882;4.718;2022-08-01T15:42:14;29.10;25.30
13529;DHT22;4419;50.882;4.718;2022-08-01T15:44:40;29.30;25.50
13529;DHT22;4419;50.882;4.718;2022-08-01T15:47:06;29.00;25.80
13529;DHT22;4419;50.882;4.718;2022-08-01T15:49:32;29.10;25.30
13529;DHT22;4419;50.882;4.718;2022-08-01T15:51:58;29.00;26.10
13529;DHT22;4419;50.882;4.718;2022-08-01T15:54:23;29.00;25.70
13529;DHT22;4419;50.882;4.718;2022-08-01T15:56:49;29.10;25.70
13529;DHT22;4419;50.882;4.718;2022-08-01T15:59:15;29.00;25.20
13529;DHT22;4419;50.882;4.718;2022-08-01T16:01:40;28.90;26.50
13529;DHT22;4419;50.882;4.718;2022-08-01T16:04:06;29.10;26.00
13529;DHT22;4419;50.882;4.718;2022-08-01T16:06:32;29.20;25.60
13529;DHT22;4419;50.882;4.718;2022-08-01T16:08:58;28.80;25.00
13529;DHT22;4419;50.882;4.718;2022-08-01T16:11:24;28.70;26.10
13529;DHT22;4419;50.882;4.718;2022-08-01T16:13:52;28.90;25.90
13529;DHT22;4419;50.882;4.718;2022-08-01T16:16:18;29.00;25.60
13529;DHT22;4419;50.882;4.718;2022-08-01T16:18:44;29.00;26.00
13529;DHT22;4419;50.882;4.718;2022-08-01T16:21:10;29.20;25.90
13529;DHT22;4419;50.882;4.718;2022-08-01T16:23:39;29.10;25.60
13529;DHT22;4419;50.882;4.718;2022-08-01T16:26:05;29.20;25.60
13529;DHT22;4419;50.882;4.718;2022-08-01T16:28:30;29.30;25.60
13529;DHT22;4419;50.882;4.718;2022-08-01T16:30:56;29.30;25.50
13529;DHT22;4419;50.882;4.718;2022-08-01T16:33:22;29.30;25.80
13529;DHT22;4419;50.882;4.718;2022-08-01T16:35:48;29.40;25.90
13529;DHT22;4419;50.882;4.718;2022-08-01T16:38:13;29.40;25.50